Time;durP1;ratioP1;P1;durP2;ratioP2;P2;SDS_P1;SDS_P2;PMS_P1;PMS_P2;Temp;Humidity;BMP_temperature;BMP_pressure;BME280_temperature;BME280_humidity;BME280_pressure;Samples;Min_cycle;Max_cycle;Signal;HPM_P1;HPM_P2
2023/05/22 00:02:06;;;;;;;0.50;0.30;;;17.70;99.90;;;;;;5093858;28;20447;-76
2023/05/22 00:04:33;;;;;;;0.50;0.30;;;17.70;99.90;;;;;;5093171;28;20447;-77
2023/05/22 00:07:02;;;;;;;0.50;0.30;;;17.70;99.90;;;;;;5093971;28;20532;-77
2023/05/22 00:09:29;;;;;;;0.50;0.40;;;17.70;99.90;;;;;;5093839;28;20462;-78
2023/05/22 00:11:56;;;;;;;0.50;0.33;;;17.70;99.90;;;;;;5093951;28;20473;-77
2023/05/22 00:14:23;;;;;;;0.50;0.40;;;17.70;99.90;;;;;;5093887;28;20526;-78
2023/05/22 00:16:49;;;;;;;0.50;0.30;;;17.70;99.90;;;;;;5093554;28;20810;-78
2023/05/22 00:19:17;;;;;;;0.50;0.40;;;17.70;99.90;;;;;;5093166;28;20486;-77
2023/05/22 00:21:43;;;;;;;0.50;0.30;;;17.60;99.90;;;;;;5093223;28;20447;-77
2023/05/22 00:24:12;;;;;;;0.50;0.40;;;17.60;99.90;;;;;;5094290;28;20534;-77
2023/05/22 00:26:39;;;;;;;0.50;0.40;;;17.60;99.90;;;;;;5094964;28;20501;-77
2023/05/22 00:29:06;;;;;;;0.50;0.40;;;17.60;99.90;;;;;;5093510;28;20998;-77
2023/05/22 00:31:33;;;;;;;0.50;0.30;;;17.60;99.90;;;;;;5093744;28;20551;-76
2023/05/22 00:34:00;;;;;;;0.50;0.40;;;17.60;99.90;;;;;;5092986;28;20478;-77
2023/05/22 00:36:27;;;;;;;0.50;0.30;;;17.50;99.90;;;;;;5093592;28;20434;-77
2023/05/22 00:38:53;;;;;;;0.50;0.40;;;17.50;99.90;;;;;;5094145;28;20943;-77
2023/05/22 00:41:22;;;;;;;0.50;0.40;;;17.40;99.90;;;;;;5093010;28;20880;-77
2023/05/22 00:43:49;;;;;;;0.50;0.30;;;17.40;99.90;;;;;;5092634;28;20917;-77
2023/05/22 00:46:20;;;;;;;0.50;0.30;;;17.40;99.90;;;;;;5093006;28;20435;-77
2023/05/22 00:48:47;;;;;;;0.53;0.40;;;17.40;99.90;;;;;;5092268;28;20852;-77
2023/05/22 00:51:14;;;;;;;0.50;0.40;;;17.50;99.90;;;;;;5095032;28;20461;-77
2023/05/22 00:53:41;;;;;;;0.50;0.30;;;17.40;99.90;;;;;;5092332;28;20498;-77
2023/05/22 00:56:09;;;;;;;0.50;0.30;;;17.40;99.90;;;;;;5092503;28;20497;-78
2023/05/22 00:58:37;;;;;;;0.50;0.40;;;17.40;99.90;;;;;;5092253;28;20439;-76
2023/05/22 01:01:06;;;;;;;0.50;0.30;;;17.40;99.90;;;;;;5092695;28;20462;-77
2023/05/22 01:03:33;;;;;;;0.50;0.30;;;17.30;99.90;;;;;;5092513;28;20435;-77
2023/05/22 01:06:00;;;;;;;0.50;0.40;;;17.30;99.90;;;;;;5084626;28;20813;-77
2023/05/22 01:08:27;;;;;;;0.60;0.60;;;17.30;99.90;;;;;;5092530;28;20509;-76
2023/05/22 01:11:01;;;;;;;0.50;0.30;;;17.30;99.90;;;;;;5092330;28;20512;-78
2023/05/22 01:13:34;;;;;;;0.50;0.30;;;17.20;99.90;;;;;;5092359;28;20517;-77
2023/05/22 01:16:10;;;;;;;0.50;0.30;;;17.30;99.90;;;;;;5084574;28;20526;-77
2023/05/22 01:18:43;;;;;;;0.50;0.30;;;17.30;99.90;;;;;;5092414;28;20934;-78
2023/05/22 01:21:17;;;;;;;0.50;0.40;;;17.20;99.90;;;;;;5092510;28;20542;-77
2023/05/22 01:24:36;;;;;;;0.50;0.30;;;17.20;99.90;;;;;;5091848;28;20522;-77
2023/05/22 01:27:27;;;;;;;0.50;0.30;;;17.20;99.90;;;;;;5092075;28;20475;-77
2023/05/22 01:30:13;;;;;;;0.50;0.37;;;17.30;99.90;;;;;;5091924;28;20459;-77
2023/05/22 01:32:43;;;;;;;0.50;0.40;;;17.30;99.90;;;;;;5091735;28;20467;-77
2023/05/22 01:35:12;;;;;;;1.27;1.17;;;17.20;99.90;;;;;;5092153;28;20443;-78
2023/05/22 01:37:40;;;;;;;0.50;0.40;;;17.20;99.90;;;;;;5091865;28;20439;-77
2023/05/22 01:40:09;;;;;;;0.50;0.40;;;17.20;99.90;;;;;;5091935;28;20472;-77
2023/05/22 01:42:39;;;;;;;0.50;0.30;;;17.20;99.90;;;;;;5091266;28;20450;-76
2023/05/22 01:45:10;;;;;;;0.50;0.40;;;17.10;99.90;;;;;;5092241;28;20475;-77
2023/05/22 01:47:36;;;;;;;0.50;0.40;;;17.10;99.90;;;;;;5091601;28;20447;-76
2023/05/22 01:50:06;;;;;;;0.50;0.40;;;17.10;99.90;;;;;;5091650;28;20471;-77
2023/05/22 01:52:40;;;;;;;0.50;0.30;;;17.10;99.90;;;;;;5091748;28;20446;-78
2023/05/22 01:55:13;;;;;;;0.50;0.30;;;17.10;99.90;;;;;;5084143;28;20845;-77
2023/05/22 01:57:49;;;;;;;0.63;0.60;;;17.00;99.90;;;;;;5091783;28;20443;-77
2023/05/22 02:00:20;;;;;;;0.50;0.30;;;17.00;99.90;;;;;;5091698;28;20466;-77
2023/05/22 02:02:51;;;;;;;0.50;0.30;;;17.00;99.90;;;;;;5091417;28;20459;-77
2023/05/22 02:05:21;;;;;;;0.50;0.40;;;16.90;99.90;;;;;;5091679;28;20432;-76
2023/05/22 02:07:49;;;;;;;0.50;0.40;;;16.90;99.90;;;;;;5091555;28;20466;-77
2023/05/22 02:10:18;;;;;;;0.87;0.87;;;16.80;99.90;;;;;;5094872;28;20455;-77
2023/05/22 02:12:45;;;;;;;1.33;1.33;;;16.90;99.90;;;;;;5095585;28;20747;-78
2023/05/22 02:15:12;;;;;;;1.60;1.53;;;16.80;99.90;;;;;;5095859;28;20461;-77
2023/05/22 02:17:40;;;;;;;0.50;0.40;;;16.90;99.90;;;;;;5095397;28;20441;-77
2023/05/22 02:20:13;;;;;;;0.50;0.30;;;16.90;99.90;;;;;;5095875;28;20523;-78
2023/05/22 02:22:42;;;;;;;0.50;0.30;;;16.90;99.90;;;;;;5095261;28;20490;-76
2023/05/22 02:25:13;;;;;;;0.50;0.30;;;16.90;99.90;;;;;;5095507;28;20443;-77
2023/05/22 02:27:41;;;;;;;0.50;0.30;;;16.90;99.90;;;;;;5095511;28;20451;-76
2023/05/22 02:30:08;;;;;;;0.50;0.30;;;16.90;99.90;;;;;;5095264;28;20462;-78
2023/05/22 02:32:35;;;;;;;0.50;0.40;;;16.90;99.90;;;;;;5095292;28;20442;-77
2023/05/22 02:35:03;;;;;;;0.50;0.30;;;16.90;99.90;;;;;;5095200;28;20445;-77
2023/05/22 02:37:29;;;;;;;0.50;0.30;;;17.00;99.90;;;;;;5095533;28;20981;-77
2023/05/22 02:39:58;;;;;;;0.50;0.30;;;16.90;99.90;;;;;;5095033;28;20554;-77
2023/05/22 02:42:25;;;;;;;0.50;0.40;;;16.90;99.90;;;;;;5095001;28;20534;-76
2023/05/22 02:44:52;;;;;;;0.50;0.40;;;16.90;99.90;;;;;;5094968;28;20439;-77
2023/05/22 02:47:19;;;;;;;0.50;0.30;;;16.90;99.90;;;;;;5095030;28;20538;-77
2023/05/22 02:49:46;;;;;;;0.60;0.30;;;16.90;99.90;;;;;;5094775;28;20902;-77
2023/05/22 02:52:13;;;;;;;0.50;0.30;;;16.90;99.90;;;;;;5095070;28;20439;-76
2023/05/22 02:54:39;;;;;;;0.50;0.40;;;16.90;99.90;;;;;;5094916;28;20477;-77
2023/05/22 02:57:08;;;;;;;0.50;0.40;;;16.90;99.90;;;;;;5086698;28;20450;-77
2023/05/22 02:59:35;;;;;;;0.50;0.40;;;16.90;99.90;;;;;;5094714;28;20973;-77
2023/05/22 03:02:02;;;;;;;0.50;0.30;;;16.90;99.90;;;;;;5095087;28;20435;-77
2023/05/22 03:04:29;;;;;;;0.50;0.30;;;16.80;99.90;;;;;;5094730;28;20952;-77
2023/05/22 03:06:56;;;;;;;0.50;0.30;;;16.80;99.90;;;;;;5094574;28;20486;-77
2023/05/22 03:09:23;;;;;;;0.50;0.40;;;16.70;99.90;;;;;;5094783;28;20530;-78
2023/05/22 03:11:50;;;;;;;0.50;0.30;;;16.70;99.90;;;;;;5094619;28;20435;-77
2023/05/22 03:14:18;;;;;;;0.50;0.30;;;16.70;99.90;;;;;;5094494;28;20813;-76
2023/05/22 03:16:45;;;;;;;0.50;0.40;;;16.70;99.90;;;;;;5094394;28;20475;-78
2023/05/22 03:19:13;;;;;;;0.50;0.30;;;16.70;99.90;;;;;;5094352;28;20822;-76
2023/05/22 03:21:42;;;;;;;0.60;0.40;;;16.60;99.90;;;;;;5094425;28;20814;-77
2023/05/22 03:24:10;;;;;;;0.50;0.40;;;16.50;99.90;;;;;;5086181;28;20540;-77
2023/05/22 03:26:36;;;;;;;0.50;0.40;;;16.50;99.90;;;;;;5094700;28;20566;-77
2023/05/22 03:29:03;;;;;;;0.50;0.40;;;16.50;99.90;;;;;;5094812;28;20633;-77
2023/05/22 03:31:33;;;;;;;1.17;1.17;;;16.40;99.90;;;;;;5094505;28;20473;-78
2023/05/22 03:34:00;;;;;;;0.50;0.40;;;16.50;99.90;;;;;;5094063;28;20471;-77
2023/05/22 03:36:27;;;;;;;0.50;0.50;;;16.50;99.90;;;;;;5095201;28;20443;-77
2023/05/22 03:38:54;;;;;;;0.50;0.30;;;16.50;99.90;;;;;;5094421;28;20435;-77
2023/05/22 03:41:21;;;;;;;0.50;0.40;;;16.40;99.90;;;;;;5094557;28;20825;-78
2023/05/22 03:43:47;;;;;;;0.50;0.30;;;16.40;99.90;;;;;;5094371;28;20857;-77
2023/05/22 03:46:14;;;;;;;0.50;0.40;;;16.30;99.90;;;;;;5094532;28;20532;-77
2023/05/22 03:48:42;;;;;;;0.50;0.40;;;16.30;99.90;;;;;;5094401;28;20439;-77
2023/05/22 03:51:09;;;;;;;0.50;0.40;;;16.20;99.90;;;;;;5086212;28;20542;-76
2023/05/22 03:53:36;;;;;;;0.50;0.40;;;16.20;99.90;;;;;;5093738;28;20479;-77
2023/05/22 03:56:03;;;;;;;0.50;0.30;;;16.20;99.90;;;;;;5093702;28;20543;-78
2023/05/22 03:58:30;;;;;;;1.20;1.10;;;16.20;99.90;;;;;;5094530;28;20874;-77
2023/05/22 04:00:59;;;;;;;0.50;0.40;;;16.20;99.90;;;;;;5093890;28;20538;-76
2023/05/22 04:03:26;;;;;;;0.50;0.40;;;16.30;99.90;;;;;;5093698;28;20440;-76
2023/05/22 04:05:55;;;;;;;0.50;0.40;;;16.30;99.90;;;;;;5093471;28;20522;-76
2023/05/22 04:08:22;;;;;;;0.50;0.40;;;16.30;99.90;;;;;;5093751;28;20475;-78
2023/05/22 04:10:49;;;;;;;0.50;0.30;;;16.30;99.90;;;;;;5093484;28;20895;-77
2023/05/22 04:13:17;;;;;;;0.50;0.30;;;16.30;99.90;;;;;;5093536;28;20721;-77
2023/05/22 04:15:46;;;;;;;0.50;0.40;;;16.30;99.90;;;;;;5093512;28;20538;-77
2023/05/22 04:18:13;;;;;;;0.50;0.40;;;16.40;99.90;;;;;;5085387;28;20446;-77
2023/05/22 04:20:40;;;;;;;0.50;0.30;;;16.40;99.90;;;;;;5093555;28;20461;-77
2023/05/22 04:23:08;;;;;;;0.50;0.43;;;16.40;99.90;;;;;;5093109;28;20913;-77
2023/05/22 04:25:35;;;;;;;0.50;0.40;;;16.40;99.90;;;;;;5093367;28;20443;-77
2023/05/22 04:28:03;;;;;;;0.50;0.30;;;16.40;99.90;;;;;;5092646;28;21050;-78
2023/05/22 04:30:32;;;;;;;0.50;0.40;;;16.40;99.90;;;;;;5093148;28;20474;-77
2023/05/22 04:33:00;;;;;;;0.50;0.43;;;16.40;99.90;;;;;;5092707;28;20447;-77
2023/05/22 04:35:28;;;;;;;0.60;0.60;;;16.50;99.90;;;;;;5093105;28;20561;-77
2023/05/22 04:37:55;;;;;;;0.50;0.40;;;16.60;99.90;;;;;;5092966;28;20447;-77
2023/05/22 04:40:25;;;;;;;0.50;0.40;;;16.60;99.90;;;;;;5093125;28;20467;-77
2023/05/22 04:42:53;;;;;;;0.50;0.40;;;16.70;99.90;;;;;;5092441;28;20443;-78
2023/05/22 04:45:20;;;;;;;0.50;0.40;;;16.70;99.90;;;;;;5092900;28;20922;-76
2023/05/22 04:47:46;;;;;;;0.50;0.40;;;16.70;99.90;;;;;;5092943;28;20447;-78
2023/05/22 04:50:15;;;;;;;0.50;0.30;;;16.80;99.90;;;;;;5084580;28;20590;-76
2023/05/22 04:52:41;;;;;;;0.50;0.40;;;16.80;99.90;;;;;;5092582;28;20435;-76
2023/05/22 04:55:10;;;;;;;0.50;0.40;;;16.90;99.90;;;;;;5092129;28;20483;-77
2023/05/22 04:57:39;;;;;;;0.80;0.80;;;17.00;99.90;;;;;;5092923;28;20450;-77
2023/05/22 05:00:07;;;;;;;0.50;0.30;;;17.00;99.90;;;;;;5091988;28;20987;-77
2023/05/22 05:02:33;;;;;;;0.50;0.30;;;17.10;99.90;;;;;;5092259;28;20447;-78
2023/05/22 05:05:00;;;;;;;0.50;0.30;;;17.20;99.90;;;;;;5092550;28;20446;-77
2023/05/22 05:07:28;;;;;;;0.50;0.40;;;17.20;99.90;;;;;;5092767;28;21028;-77
2023/05/22 05:09:55;;;;;;;0.50;0.30;;;17.30;99.90;;;;;;5092388;28;20521;-78
2023/05/22 05:12:21;;;;;;;0.50;0.40;;;17.40;99.90;;;;;;5092841;28;20858;-77
2023/05/22 05:14:49;;;;;;;0.50;0.40;;;17.40;99.90;;;;;;5092906;28;20475;-77
2023/05/22 05:17:16;;;;;;;0.50;0.40;;;17.50;99.90;;;;;;5084610;28;20438;-78
2023/05/22 05:19:43;;;;;;;0.97;0.87;;;17.50;99.90;;;;;;5092193;28;20463;-77
2023/05/22 05:22:10;;;;;;;0.50;0.40;;;17.60;99.90;;;;;;5092060;28;20431;-77
2023/05/22 05:24:37;;;;;;;0.50;0.30;;;17.60;99.90;;;;;;5092517;28;20439;-78
2023/05/22 05:27:04;;;;;;;0.97;0.97;;;17.70;99.90;;;;;;5092865;28;20526;-78
2023/05/22 05:29:30;;;;;;;0.50;0.40;;;17.70;99.90;;;;;;5091777;28;20441;-77
2023/05/22 05:31:59;;;;;;;1.00;0.90;;;17.70;99.90;;;;;;5091481;28;20492;-77
2023/05/22 05:34:25;;;;;;;0.50;0.40;;;17.80;99.90;;;;;;5091076;28;20475;-77
2023/05/22 05:36:52;;;;;;;0.50;0.40;;;17.80;99.90;;;;;;5091017;28;20475;-77
2023/05/22 05:39:19;;;;;;;0.50;0.40;;;17.90;99.90;;;;;;5091235;28;20984;-77
2023/05/22 05:41:46;;;;;;;0.50;0.40;;;17.90;99.90;;;;;;5148013;22;20570;-80
2023/05/22 05:44:13;;;;;;;0.50;0.30;;;18.00;99.90;;;;;;5091215;28;20858;-80
2023/05/22 05:46:40;;;;;;;0.50;0.40;;;18.00;99.90;;;;;;5093933;28;20442;-80
2023/05/22 05:49:09;;;;;;;0.50;0.30;;;18.10;99.90;;;;;;5093677;28;20439;-80
2023/05/22 05:51:36;;;;;;;0.50;0.50;;;18.10;99.90;;;;;;5094191;28;20463;-79
2023/05/22 05:54:03;;;;;;;3.73;3.20;;;18.20;99.90;;;;;;5093606;28;20475;-80
2023/05/22 05:56:30;;;;;;;0.50;0.40;;;18.30;99.90;;;;;;5093734;28;20442;-80
2023/05/22 05:58:57;;;;;;;0.50;0.43;;;18.40;99.90;;;;;;5093252;28;20857;-79
2023/05/22 06:01:26;;;;;;;0.60;0.60;;;18.50;99.90;;;;;;5093668;28;20455;-80
2023/05/22 06:03:53;;;;;;;0.50;0.30;;;18.70;99.90;;;;;;5093214;28;20450;-79
2023/05/22 06:06:24;;;;;;;0.50;0.30;;;18.80;99.90;;;;;;5093891;28;20855;-79
2023/05/22 06:08:51;;;;;;;0.50;0.30;;;19.00;99.90;;;;;;5093272;28;20454;-79
2023/05/22 06:11:18;;;;;;;0.50;0.40;;;19.30;99.90;;;;;;5085041;28;20520;-79
2023/05/22 06:13:45;;;;;;;0.50;0.40;;;19.50;99.90;;;;;;5093208;28;20467;-78
2023/05/22 06:16:12;;;;;;;0.50;0.30;;;19.70;99.90;;;;;;5092911;28;20858;-80
2023/05/22 06:18:39;;;;;;;0.50;0.30;;;20.20;99.90;;;;;;5092951;28;20448;-80
2023/05/22 06:21:06;;;;;;;0.50;0.50;;;21.10;99.90;;;;;;5093540;28;20525;-81
2023/05/22 06:23:35;;;;;;;0.50;0.40;;;22.00;99.90;;;;;;5093000;28;20454;-80
2023/05/22 06:26:02;;;;;;;0.50;0.30;;;23.00;99.90;;;;;;5093396;28;20436;-80
2023/05/22 06:28:28;;;;;;;1.93;1.83;;;24.00;99.90;;;;;;5093352;28;20436;-79
2023/05/22 06:30:55;;;;;;;0.50;0.30;;;24.50;99.90;;;;;;5093529;28;21084;-80
2023/05/22 06:33:22;;;;;;;0.50;0.40;;;24.70;99.90;;;;;;5093398;28;20455;-80
2023/05/22 06:35:49;;;;;;;1.37;1.03;;;24.80;99.90;;;;;;5093450;28;20485;-80
2023/05/22 06:38:16;;;;;;;1.43;1.33;;;24.60;99.90;;;;;;5092868;28;20522;-80
2023/05/22 06:40:44;;;;;;;0.50;0.30;;;25.10;99.90;;;;;;5093123;28;20464;-80
2023/05/22 06:43:11;;;;;;;1.67;0.93;;;25.90;99.90;;;;;;5092850;28;20451;-77
2023/05/22 06:45:39;;;;;;;0.90;0.70;;;26.80;99.90;;;;;;5093213;28;20522;-81
2023/05/22 06:48:06;;;;;;;0.50;0.30;;;27.40;99.90;;;;;;5093162;28;20475;-81
2023/05/22 06:50:33;;;;;;;0.73;0.70;;;27.70;99.90;;;;;;5093056;28;20546;-80
2023/05/22 06:53:00;;;;;;;0.50;0.30;;;28.20;99.90;;;;;;5092280;28;20820;-81
2023/05/22 06:55:27;;;;;;;1.77;1.13;;;28.60;99.90;;;;;;5094376;28;20545;-80
2023/05/22 06:57:55;;;;;;;0.50;0.30;;;29.30;99.90;;;;;;5096254;28;20438;-81
2023/05/22 07:00:22;;;;;;;1.33;1.23;;;30.20;99.90;;;;;;5096587;28;20439;-81
2023/05/22 07:02:49;;;;;;;0.50;0.37;;;30.80;96.80;;;;;;5096716;28;20816;-78
2023/05/22 07:05:16;;;;;;;1.50;1.30;;;31.00;94.40;;;;;;5096685;28;20877;-79
2023/05/22 07:07:43;;;;;;;1.07;0.97;;;31.40;93.90;;;;;;5096424;28;20930;-81
2023/05/22 07:10:11;;;;;;;0.50;0.30;;;30.70;92.30;;;;;;5096399;28;20431;-80
2023/05/22 07:12:37;;;;;;;0.50;0.30;;;29.80;92.90;;;;;;5096061;28;20496;-81
2023/05/22 07:15:10;;;;;;;0.50;0.30;;;29.60;95.80;;;;;;5096160;28;21015;-78
2023/05/22 07:17:40;;;;;;;0.70;0.70;;;30.00;95.70;;;;;;5096233;28;20454;-79
2023/05/22 07:20:08;;;;;;;1.73;0.93;;;30.00;94.50;;;;;;5095540;28;20894;-77
2023/05/22 07:22:35;;;;;;;0.60;0.50;;;29.90;93.30;;;;;;5094635;28;20466;-76
2023/05/22 07:25:02;;;;;;;0.80;0.80;;;30.20;95.30;;;;;;5095253;28;20435;-80
2023/05/22 07:27:29;;;;;;;1.40;1.30;;;30.40;92.60;;;;;;5096186;28;20474;-78
2023/05/22 07:29:56;;;;;;;2.13;1.40;;;30.20;92.70;;;;;;5095962;28;20450;-81
2023/05/22 07:32:24;;;;;;;2.40;2.10;;;30.00;93.40;;;;;;5087643;28;20474;-77
2023/05/22 07:34:51;;;;;;;0.50;0.30;;;30.00;94.30;;;;;;5095775;28;20554;-79
2023/05/22 07:37:18;;;;;;;0.50;0.30;;;31.00;94.60;;;;;;5096760;28;20478;-79
2023/05/22 07:39:46;;;;;;;0.50;0.40;;;31.40;91.90;;;;;;5096492;28;20953;-83
2023/05/22 07:42:13;;;;;;;1.17;0.83;;;32.00;91.10;;;;;;5098698;28;20463;-81
2023/05/22 07:44:40;;;;;;;0.50;0.50;;;32.50;90.00;;;;;;5099082;28;20443;-81
2023/05/22 07:47:07;;;;;;;1.53;1.43;;;33.10;87.80;;;;;;5095699;28;20994;-79
2023/05/22 07:49:35;;;;;;;2.00;1.70;;;33.20;84.20;;;;;;5094552;28;20502;-80
2023/05/22 07:52:02;;;;;;;1.00;0.70;;;33.20;83.90;;;;;;5094646;28;20467;-80
2023/05/22 07:54:29;;;;;;;1.23;1.13;;;33.20;84.10;;;;;;5095005;28;20503;-81
2023/05/22 07:56:56;;;;;;;3.20;3.00;;;33.10;81.30;;;;;;5095159;28;20538;-82
2023/05/22 07:59:24;;;;;;;0.50;0.37;;;32.40;81.70;;;;;;5095030;28;20443;-78
2023/05/22 08:01:51;;;;;;;0.50;0.50;;;31.70;84.80;;;;;;5095130;28;20903;-81
2023/05/22 08:04:17;;;;;;;2.03;1.93;;;31.50;87.90;;;;;;5094851;28;20448;-80
2023/05/22 08:06:46;;;;;;;1.23;1.13;;;31.80;86.80;;;;;;5094321;28;20439;-81
2023/05/22 08:09:12;;;;;;;0.97;0.97;;;31.90;86.10;;;;;;5094894;28;20446;-81
2023/05/22 08:11:41;;;;;;;1.90;1.80;;;32.00;87.20;;;;;;5095276;28;20463;-79
2023/05/22 08:14:07;;;;;;;3.07;2.27;;;32.20;87.60;;;;;;5095225;28;20444;-79
2023/05/22 08:16:34;;;;;;;0.50;0.40;;;32.70;85.60;;;;;;5095288;28;20562;-80
2023/05/22 08:19:01;;;;;;;2.73;1.43;;;32.40;85.30;;;;;;5095059;28;20864;-80
2023/05/22 08:21:28;;;;;;;1.93;1.83;;;31.70;86.60;;;;;;5094663;28;20490;-81
2023/05/22 08:23:56;;;;;;;1.30;1.07;;;31.20;89.80;;;;;;5095102;28;20447;-79
2023/05/22 08:26:23;;;;;;;0.50;0.30;;;31.40;90.80;;;;;;5094211;28;20511;-80
2023/05/22 08:28:51;;;;;;;3.70;3.47;;;32.10;90.90;;;;;;5094321;28;20977;-81
2023/05/22 08:31:18;;;;;;;1.80;1.40;;;32.70;88.00;;;;;;5094674;28;20471;-82
2023/05/22 08:33:44;;;;;;;1.57;1.47;;;32.70;88.20;;;;;;5094708;28;20443;-81
2023/05/22 08:36:11;;;;;;;7.80;4.97;;;32.60;88.00;;;;;;5094437;28;20478;-80
2023/05/22 08:38:38;;;;;;;0.90;0.80;;;33.00;85.10;;;;;;5094525;28;20447;-80
2023/05/22 08:41:07;;;;;;;10.50;5.67;;;33.30;88.10;;;;;;5094635;28;20495;-80
2023/05/22 08:43:35;;;;;;;0.50;0.37;;;33.60;82.10;;;;;;5094447;28;20454;-81
2023/05/22 08:46:04;;;;;;;2.60;2.20;;;33.30;82.40;;;;;;5094486;28;20439;-79
2023/05/22 08:48:32;;;;;;;1.70;1.47;;;32.70;83.30;;;;;;5094677;28;20443;-81
2023/05/22 08:51:06;;;;;;;0.90;0.80;;;32.60;83.60;;;;;;5094513;28;20543;-81
2023/05/22 08:53:35;;;;;;;2.63;2.53;;;32.80;83.90;;;;;;5086388;28;20514;-80
2023/05/22 08:56:03;;;;;;;0.77;0.77;;;32.90;82.40;;;;;;5093775;28;20475;-78
2023/05/22 08:58:33;;;;;;;0.83;0.83;;;32.80;83.30;;;;;;5094173;28;20451;-81
2023/05/22 09:01:00;;;;;;;2.73;2.57;;;32.90;84.20;;;;;;5094081;28;20537;-82
2023/05/22 09:03:31;;;;;;;4.70;2.40;;;33.00;82.80;;;;;;5086191;28;20439;-80
2023/05/22 09:05:58;;;;;;;6.07;4.00;;;32.50;82.90;;;;;;5094783;28;20475;-81
2023/05/22 09:08:25;;;;;;;11.00;8.43;;;31.80;85.20;;;;;;5093912;28;20526;-79
2023/05/22 09:10:53;;;;;;;12.67;7.53;;;30.60;86.30;;;;;;5094076;28;20841;-81
2023/05/22 09:13:26;;;;;;;0.80;0.70;;;29.60;90.40;;;;;;5093507;28;20833;-81
2023/05/22 09:15:58;;;;;;;4.87;4.47;;;28.90;93.10;;;;;;5094166;28;20479;-79
2023/05/22 09:18:27;;;;;;;3.20;3.00;;;28.00;98.70;;;;;;5093596;28;20439;-80
2023/05/22 09:20:56;;;;;;;9.60;7.70;;;27.30;99.90;;;;;;5094485;28;20459;-78
2023/05/22 09:23:24;;;;;;;0.50;0.30;;;27.50;99.90;;;;;;5093229;28;20535;-79
2023/05/22 09:25:55;;;;;;;1.07;0.97;;;28.10;99.90;;;;;;5093860;28;20473;-80
2023/05/22 09:28:22;;;;;;;3.60;2.63;;;28.10;99.90;;;;;;5094744;28;20470;-78
2023/05/22 09:30:49;;;;;;;0.60;0.50;;;28.40;99.90;;;;;;5093477;28;20509;-80
2023/05/22 09:33:18;;;;;;;0.60;0.60;;;28.50;99.90;;;;;;5094012;28;20451;-79
2023/05/22 09:35:46;;;;;;;1.37;1.27;;;29.10;99.90;;;;;;5093188;28;20553;-80
2023/05/22 09:38:13;;;;;;;2.03;1.90;;;30.10;99.90;;;;;;5093590;28;20540;-80
2023/05/22 09:40:41;;;;;;;0.63;0.50;;;30.40;98.00;;;;;;5093057;28;20602;-79
2023/05/22 09:43:08;;;;;;;2.20;2.03;;;30.90;96.80;;;;;;5094285;28;20898;-80
2023/05/22 09:45:35;;;;;;;0.50;0.40;;;30.80;94.30;;;;;;5092975;28;20497;-79
2023/05/22 09:48:02;;;;;;;6.13;4.30;;;31.00;93.70;;;;;;5093174;28;20443;-79
2023/05/22 09:50:30;;;;;;;18.13;5.03;;;30.60;92.80;;;;;;5092909;28;20459;-79
2023/05/22 09:53:00;;;;;;;4.30;3.20;;;30.50;95.20;;;;;;5093186;28;20778;-79
2023/05/22 09:55:28;;;;;;;11.93;6.30;;;30.50;94.00;;;;;;5093267;28;20481;-79
2023/05/22 09:57:56;;;;;;;7.53;6.87;;;30.40;92.80;;;;;;5093051;28;20443;-78
2023/05/22 10:00:25;;;;;;;4.27;3.97;;;30.10;92.70;;;;;;5092869;28;20447;-78
2023/05/22 10:02:57;;;;;;;6.40;5.03;;;29.80;94.70;;;;;;5092869;28;20952;-79
2023/05/22 10:05:27;;;;;;;4.83;4.40;;;30.10;96.50;;;;;;5093076;28;20435;-79
2023/05/22 10:07:58;;;;;;;5.10;4.67;;;30.80;93.40;;;;;;5093400;28;20443;-79
2023/05/22 10:10:25;;;;;;;5.07;4.67;;;30.80;91.50;;;;;;5093427;28;20491;-80
2023/05/22 10:12:56;;;;;;;9.10;4.63;;;30.70;91.20;;;;;;5093519;28;20522;-80
2023/05/22 10:15:23;;;;;;;0.93;0.93;;;30.80;92.00;;;;;;5092553;28;20566;-80
2023/05/22 10:17:51;;;;;;;9.00;6.83;;;30.50;92.60;;;;;;5093587;28;20530;-78
2023/05/22 10:20:18;;;;;;;4.87;1.37;;;30.40;91.30;;;;;;5093235;28;20532;-79
2023/05/22 10:22:47;;;;;;;6.83;5.10;;;30.10;92.60;;;;;;5092872;28;20439;-79
2023/05/22 10:25:18;;;;;;;8.53;4.60;;;29.90;93.00;;;;;;5092702;28;20848;-79
2023/05/22 10:27:45;;;;;;;4.20;2.43;;;29.80;93.70;;;;;;5093272;28;20551;-81
2023/05/22 10:30:22;;;;;;;3.47;3.17;;;30.30;94.30;;;;;;5094056;28;20486;-79
2023/05/22 10:32:56;;;;;;;0.80;0.80;;;30.60;91.10;;;;;;5097330;28;20514;-79
2023/05/22 10:35:31;;;;;;;1.60;1.50;;;30.30;91.40;;;;;;5097043;28;20795;-80
2023/05/22 10:38:13;;;;;;;0.60;0.60;;;30.20;91.30;;;;;;5097205;28;20508;-79
2023/05/22 10:40:44;;;;;;;8.13;5.73;;;30.60;91.10;;;;;;5096864;28;20486;-80
2023/05/22 10:43:11;;;;;;;2.30;2.10;;;30.20;90.10;;;;;;5097268;28;20435;-80
2023/05/22 10:45:38;;;;;;;0.50;0.30;;;31.00;90.70;;;;;;5097030;28;20445;-79
2023/05/22 10:48:06;;;;;;;4.50;1.50;;;31.00;90.90;;;;;;5096987;28;20434;-80
2023/05/22 10:50:33;;;;;;;1.47;0.93;;;31.70;89.50;;;;;;5096535;28;20447;-81
2023/05/22 10:53:19;;;;;;;1.47;0.67;;;32.40;84.10;;;;;;5096525;28;20542;-79
2023/05/22 10:55:52;;;;;;;5.40;3.80;;;32.80;82.50;;;;;;5097200;28;20482;-79
2023/05/22 10:58:26;;;;;;;1.40;1.30;;;32.40;79.60;;;;;;5096810;28;20435;-79
2023/05/22 11:01:12;;;;;;;7.97;6.57;;;32.50;81.60;;;;;;5096978;28;20459;-79
2023/05/22 11:03:56;;;;;;;4.20;3.30;;;32.20;78.90;;;;;;5096667;28;20927;-79
2023/05/22 11:06:39;;;;;;;1.00;0.80;;;31.70;81.70;;;;;;5096421;28;20518;-79
2023/05/22 11:09:31;;;;;;;4.90;4.47;;;31.70;82.40;;;;;;5096320;28;20445;-80
2023/05/22 11:12:19;;;;;;;3.80;2.67;;;32.00;80.80;;;;;;5096673;28;20969;-80
2023/05/22 11:14:51;;;;;;;0.83;0.83;;;32.20;79.50;;;;;;5096206;28;20450;-80
2023/05/22 11:17:21;;;;;;;1.47;1.43;;;32.10;81.40;;;;;;5096129;28;20471;-77
2023/05/22 11:19:58;;;;;;;3.63;3.10;;;32.40;79.40;;;;;;5095781;28;20538;-80
2023/05/22 11:22:33;;;;;;;6.73;4.80;;;32.60;77.60;;;;;;5095808;28;20454;-81
2023/05/22 11:25:03;;;;;;;0.60;0.37;;;32.70;80.00;;;;;;5096051;28;20518;-79
2023/05/22 11:27:32;;;;;;;1.37;0.77;;;33.20;77.90;;;;;;5096227;28;20510;-80
2023/05/22 11:30:00;;;;;;;2.43;1.63;;;33.20;77.50;;;;;;5096266;28;20447;-80
2023/05/22 11:32:27;;;;;;;0.50;0.30;;;33.20;77.90;;;;;;5095963;28;20831;-81
2023/05/22 11:34:56;;;;;;;2.00;1.90;;;33.80;77.30;;;;;;5096485;28;20442;-79
2023/05/22 11:37:23;;;;;;;3.10;2.57;;;33.70;74.90;;;;;;5095935;28;20481;-79
2023/05/22 11:39:51;;;;;;;0.50;0.30;;;32.90;77.10;;;;;;5095849;28;20941;-80
2023/05/22 11:42:18;;;;;;;0.50;0.30;;;32.70;78.70;;;;;;5085850;28;20468;-79
2023/05/22 11:44:46;;;;;;;4.90;4.40;;;32.50;78.60;;;;;;5089714;28;20435;-79
2023/05/22 11:47:13;;;;;;;4.10;3.17;;;32.40;78.80;;;;;;5096996;28;20432;-79
2023/05/22 11:49:41;;;;;;;2.23;2.13;;;32.20;80.40;;;;;;5092943;28;20441;-79
2023/05/22 11:52:08;;;;;;;2.90;2.70;;;32.50;80.50;;;;;;5092883;28;20463;-79
2023/05/22 11:54:35;;;;;;;2.47;2.20;;;33.00;80.10;;;;;;5096242;28;20889;-78
2023/05/22 11:57:04;;;;;;;0.97;0.87;;;32.70;77.20;;;;;;5096543;28;20516;-80
2023/05/22 11:59:31;;;;;;;2.60;2.20;;;32.90;79.20;;;;;;5096270;28;20786;-80
2023/05/22 12:01:59;;;;;;;3.73;2.63;;;32.50;78.50;;;;;;5096678;28;20459;-80
2023/05/22 12:04:26;;;;;;;1.70;1.23;;;32.40;80.70;;;;;;5096798;28;20447;-81
2023/05/22 12:06:54;;;;;;;1.83;1.17;;;32.80;79.30;;;;;;5096887;28;20991;-80
2023/05/22 12:09:22;;;;;;;1.27;1.27;;;32.60;78.60;;;;;;5095841;28;20815;-80
2023/05/22 12:11:49;;;;;;;0.57;0.50;;;32.60;83.20;;;;;;5095808;28;20451;-80
2023/05/22 12:14:16;;;;;;;1.00;0.70;;;33.00;81.10;;;;;;5096552;28;21010;-78
2023/05/22 12:16:43;;;;;;;0.50;0.30;;;33.20;78.20;;;;;;5096496;28;20479;-80
2023/05/22 12:19:12;;;;;;;8.43;5.23;;;33.90;78.70;;;;;;5096361;28;20914;-80
2023/05/22 12:21:40;;;;;;;3.10;2.27;;;34.50;75.20;;;;;;5087502;28;20526;-80
2023/05/22 12:24:08;;;;;;;2.00;1.87;;;34.60;74.60;;;;;;5095965;28;20961;-80
2023/05/22 12:26:35;;;;;;;9.20;5.47;;;33.90;76.20;;;;;;5096257;28;20440;-81
2023/05/22 12:29:04;;;;;;;0.63;0.63;;;33.00;77.10;;;;;;5095817;28;20440;-80
2023/05/22 12:31:37;;;;;;;0.70;0.70;;;33.00;82.10;;;;;;5095425;28;20470;-81
2023/05/22 12:34:06;;;;;;;0.50;0.40;;;33.40;78.40;;;;;;5095809;28;20961;-80
2023/05/22 12:36:38;;;;;;;0.50;0.50;;;33.20;79.10;;;;;;5095174;28;20482;-80
2023/05/22 12:39:08;;;;;;;0.50;0.30;;;33.00;79.60;;;;;;5095548;28;20522;-79
2023/05/22 12:41:35;;;;;;;0.50;0.30;;;33.30;78.90;;;;;;5095276;28;21078;-80
2023/05/22 12:44:02;;;;;;;1.43;1.20;;;34.00;77.90;;;;;;5086802;28;20523;-81
2023/05/22 12:46:30;;;;;;;0.50;0.30;;;34.10;76.50;;;;;;5095383;28;20443;-82
2023/05/22 12:48:57;;;;;;;1.63;1.53;;;34.20;78.70;;;;;;5081077;28;20467;-80
2023/05/22 12:51:27;;;;;;;0.50;0.50;;;35.00;73.70;;;;;;5092770;28;20897;-81
2023/05/22 12:53:56;;;;;;;0.50;0.50;;;35.00;76.60;;;;;;5094606;28;20439;-79